Etusivu
METAR-TAF:

METAR-TAF

Lentoasemat :

Sharurah, Saudi-Arabia

Leveyspiiri: 17-28N, Pituuspiiri: 047-07E, korkeus merenpinnasta: 720 m

Tämänhetkinen sää

Tämä raportti tehtiin 1 tunti ja 10 minuuttia sitten, kello 12.00 UTC
Tuuli 5 kn idästä
Lämpötila 28°C
Kosteus 25%
Ilmanpaine 1015 hPa
Näkyvyys 10 km tai enemmän
ei pilviä alle 1500 m:ssä eikä cumulonimbus-pilviä

METAR: OESH 151200Z 09005KT CAVOK 28/06 Q1015 NOSIG

Aika: 16:10 (13:10 UTC)

Sääennuste

Tämä raportti tehtiin 2 tuntia ja 10 minuuttia sitten, kello 11.00 UTC
Ennuste voimassa 15. päivästä klo 12 UTC - 16. päivään klo 18 UTC
Tuuli 13 kn idästä/koillisesta
Näkyvyys 10 km tai enemmän
ei pilviä alle 1500 m:ssä eikä cumulonimbus-pilviä
Tulossa
15. päivästä klo 20 UTC - 15. päivään klo 22 UTC
Tuuli 10 kn idästä/kaakosta

TAF: OESH 151100Z 1512/1618 06013KT CAVOK BECMG 1520/1522 12010KT

Säähavainnot ja -ennusteet yli 4000 lentoasemalta (METAR- ja TAF-raportit).

Käytössä olevat sääasemat on merkitty karttaan keltaisilla ja punaisilla pisteillä.

Aseta hiiri pisteen päälle nähdäksesi sääaseman nimen.

Klikkaa sitten nähdäksesi säähavainnot ja -ennusteet.

Kartan vaihtaminen: klikkaa mustalla rastilla varustettuja vihreitä pisteitä, niin voit zoomata sisään; viivalla varustettua vihreää pistettä, niin voit zoomata ulos tai vihreitä nuolia, niin pääset viereisille kartoille.


METAR-TAF: